createdAt,value
2023-03-29T00:00:23.917Z,14.52
2023-03-29T00:03:28.613Z,7.30
2023-03-29T00:06:33.371Z,3.60
2023-03-29T07:31:17.543Z,3.60
2023-03-29T07:34:27.319Z,4.10
2023-03-29T07:37:31.180Z,4.65
2023-03-29T07:40:35.549Z,3.42
2023-03-29T07:44:07.166Z,4.07
2023-03-29T07:47:11.018Z,7.53
2023-03-29T07:50:16.691Z,3.90
2023-03-29T07:53:21.246Z,4.55
2023-03-29T07:56:26.604Z,5.53
2023-03-29T07:59:53.814Z,4.50
2023-03-29T08:03:04.025Z,5.37
2023-03-29T08:06:08.428Z,5.15
2023-03-29T08:09:13.082Z,4.60
2023-03-29T08:12:19.931Z,5.03
2023-03-29T08:15:23.776Z,4.93
2023-03-29T08:18:27.674Z,2.90
2023-03-29T08:21:31.901Z,2.65
2023-03-29T08:24:35.377Z,4.75
2023-03-29T08:27:43.394Z,8.52
2023-03-29T08:30:48.292Z,7.53
2023-03-29T08:33:53.447Z,3.93
2023-03-29T08:37:15.940Z,6.65
2023-03-29T08:40:28.208Z,4.55
2023-03-29T08:43:49.761Z,4.50
2023-03-29T08:47:28.835Z,7.47
2023-03-29T08:50:39.863Z,5.53
2023-03-29T08:53:52.621Z,3.00
2023-03-29T08:57:12.839Z,3.00
2023-03-29T09:00:44.347Z,3.80
2023-03-29T09:04:19.141Z,5.50
2023-03-29T09:07:35.637Z,9.50
2023-03-29T09:11:08.182Z,2.72
2023-03-29T09:14:58.023Z,6.22
2023-03-29T09:18:33.330Z,6.53
2023-03-29T09:22:05.348Z,2.30
2023-03-29T09:25:21.709Z,4.43
2023-03-29T09:28:38.615Z,1.95
2023-03-29T09:31:44.833Z,6.60
2023-03-29T09:35:18.752Z,3.97
2023-03-29T09:38:23.701Z,4.03
2023-03-29T09:46:24.755Z,5.30
2023-03-29T09:49:34.801Z,3.45
2023-03-29T09:52:38.621Z,3.67
2023-03-29T09:55:53.940Z,5.30
2023-03-29T09:59:13.960Z,2.97
2023-03-29T10:02:20.545Z,5.00
2023-03-29T10:05:26.630Z,4.43
2023-03-29T10:08:52.881Z,6.63
2023-03-29T10:12:05.654Z,3.85
2023-03-29T10:15:26.779Z,5.17
2023-03-29T10:18:34.464Z,6.13
2023-03-29T10:21:38.371Z,6.28
2023-03-29T10:24:47.630Z,5.10
2023-03-29T10:27:58.612Z,4.30
2023-03-29T10:31:04.235Z,4.40
2023-03-29T10:34:09.095Z,5.22
2023-03-29T10:37:14.698Z,8.60
2023-03-29T10:40:27.607Z,5.68
2023-03-29T10:43:44.783Z,7.45
2023-03-29T10:46:48.086Z,6.57
2023-03-29T10:49:58.909Z,7.57
2023-03-29T10:53:06.399Z,5.65
2023-03-29T10:56:47.405Z,5.20
2023-03-29T11:00:07.372Z,5.10
2023-03-29T11:03:42.215Z,5.47
2023-03-29T11:07:16.592Z,6.07
2023-03-29T11:10:29.013Z,6.13
2023-03-29T11:13:59.753Z,5.72
2023-03-29T11:17:27.579Z,5.65
2023-03-29T11:20:48.274Z,6.93
2023-03-29T11:24:16.396Z,6.17
2023-03-29T11:27:44.741Z,5.03
2023-03-29T11:31:22.829Z,6.22
2023-03-29T11:34:35.138Z,5.40
2023-03-29T11:38:05.528Z,5.90
2023-03-29T11:41:16.023Z,5.93
2023-03-29T11:44:32.018Z,4.95
2023-03-29T11:47:39.539Z,8.15
2023-03-29T11:51:33.964Z,6.82
2023-03-29T11:54:46.251Z,7.77
2023-03-29T11:58:01.384Z,6.43
2023-03-29T12:01:25.833Z,5.72
2023-03-29T12:04:38.437Z,10.13
2023-03-29T12:08:03.810Z,6.90
2023-03-29T12:11:20.680Z,9.93
2023-03-29T12:14:25.458Z,20.90
2023-03-29T12:17:59.590Z,7.25
2023-03-29T12:21:09.077Z,6.38
2023-03-29T12:24:15.129Z,5.10
2023-03-29T12:28:07.761Z,6.50
2023-03-29T12:31:22.492Z,4.40
2023-03-29T12:35:00.218Z,5.97
2023-03-29T12:38:30.570Z,7.53
2023-03-29T12:41:53.633Z,5.18
2023-03-29T12:45:33.416Z,4.93
2023-03-29T12:48:41.737Z,5.53
2023-03-29T12:51:45.569Z,7.70
2023-03-29T12:55:22.305Z,4.97
2023-03-29T12:58:40.455Z,4.70
2023-03-29T13:02:08.681Z,6.53
2023-03-29T13:05:36.444Z,4.17
2023-03-29T13:08:45.035Z,5.18
2023-03-29T13:12:16.700Z,11.57
2023-03-29T13:15:20.076Z,6.82
2023-03-29T13:18:57.524Z,4.50
2023-03-29T13:22:34.001Z,4.33
2023-03-29T13:25:52.763Z,5.93
2023-03-29T13:29:20.292Z,5.05
2023-03-29T13:32:40.907Z,5.70
2023-03-29T13:36:05.983Z,5.28
2023-03-29T13:39:23.879Z,4.53
2023-03-29T13:42:41.877Z,5.00
2023-03-29T13:45:46.426Z,7.32
2023-03-29T13:48:59.319Z,4.80
2023-03-29T13:52:13.312Z,6.78
2023-03-29T13:55:27.116Z,6.57
2023-03-29T13:58:45.901Z,5.33
2023-03-29T14:01:58.232Z,6.25
2023-03-29T14:05:04.352Z,7.30
2023-03-29T14:08:22.432Z,12.65
2023-03-29T14:11:29.041Z,26.57
2023-03-29T14:14:33.157Z,21.17
2023-03-29T14:17:37.978Z,19.70
2023-03-29T14:20:46.272Z,7.75
2023-03-29T14:23:57.500Z,7.05
2023-03-29T14:27:03.066Z,6.90
2023-03-29T14:30:29.144Z,9.17
2023-03-29T14:33:34.814Z,8.10
2023-03-29T14:36:39.722Z,5.70
2023-03-29T14:39:43.479Z,6.90
2023-03-29T14:42:48.656Z,8.70
2023-03-29T14:45:52.357Z,8.40
2023-03-29T14:48:57.134Z,7.65
2023-03-29T14:52:00.852Z,13.38
2023-03-29T14:55:04.900Z,8.25
2023-03-29T14:58:22.650Z,8.43
2023-03-29T15:01:27.974Z,12.10
2023-03-29T15:04:35.972Z,10.50
2023-03-29T15:07:43.051Z,11.68
2023-03-29T15:10:46.602Z,14.30
2023-03-29T15:13:55.912Z,7.80
2023-03-29T15:17:20.947Z,7.10
2023-03-29T15:20:33.641Z,6.88
2023-03-29T15:23:41.351Z,6.20
2023-03-29T15:26:44.763Z,6.18
2023-03-29T15:29:48.523Z,6.67
2023-03-29T15:32:53.908Z,5.27
2023-03-29T15:35:58.214Z,5.65
2023-03-29T15:39:02.262Z,5.85
2023-03-29T15:42:06.372Z,6.95
2023-03-29T15:45:17.826Z,11.10
2023-03-29T15:48:23.755Z,7.50
2023-03-29T15:51:27.533Z,5.20
2023-03-29T15:54:33.809Z,8.68
2023-03-29T15:57:37.496Z,14.82
2023-03-29T16:00:48.860Z,22.20
2023-03-29T16:03:52.390Z,10.00
2023-03-29T16:06:56.505Z,7.32
2023-03-29T16:09:59.909Z,6.15
2023-03-29T16:13:03.432Z,9.60
2023-03-29T16:16:07.855Z,8.87
2023-03-29T16:19:11.611Z,16.33
2023-03-29T16:22:15.163Z,14.05
2023-03-29T16:25:22.838Z,10.88
2023-03-29T16:28:26.443Z,7.82
2023-03-29T16:31:29.836Z,8.03
2023-03-29T16:34:33.219Z,5.83
2023-03-29T16:37:36.629Z,6.15
2023-03-29T16:40:40.059Z,4.57
2023-03-29T16:43:43.914Z,7.38
2023-03-29T16:46:47.446Z,11.53
2023-03-29T16:49:51.244Z,8.23
2023-03-29T16:52:54.610Z,7.32
2023-03-29T16:55:58.565Z,6.82
2023-03-29T16:59:02.521Z,10.20
2023-03-29T17:02:05.932Z,16.93
2023-03-29T17:05:10.484Z,18.42
2023-03-29T17:08:13.949Z,39.55
2023-03-29T17:11:17.583Z,49.25
2023-03-29T17:14:21.175Z,72.55
2023-03-29T17:17:24.693Z,79.13
2023-03-29T17:20:28.360Z,54.95
2023-03-29T17:23:32.060Z,77.70
2023-03-29T17:26:36.012Z,41.97
2023-03-29T17:29:39.464Z,40.85
2023-03-29T17:32:43.171Z,41.67
2023-03-29T17:35:46.869Z,40.72
2023-03-29T17:38:51.112Z,52.53
2023-03-29T17:41:56.494Z,50.22
2023-03-29T17:44:59.817Z,52.55
2023-03-29T17:48:06.090Z,62.33
2023-03-29T17:51:09.919Z,56.17
2023-03-29T17:54:13.390Z,53.40
2023-03-29T17:57:16.920Z,46.58
2023-03-29T18:00:20.691Z,42.42
2023-03-29T18:03:24.545Z,41.20
2023-03-29T18:06:28.160Z,55.55
2023-03-29T18:09:31.844Z,56.58
2023-03-29T18:12:36.749Z,68.15
2023-03-29T18:15:40.513Z,74.32
2023-03-29T18:18:46.347Z,46.87
2023-03-29T18:21:50.076Z,31.08
2023-03-29T18:24:54.993Z,26.70
2023-03-29T18:27:58.512Z,20.30
2023-03-29T18:31:02.733Z,27.55
2023-03-29T18:34:06.364Z,20.17
2023-03-29T18:37:14.626Z,13.43
2023-03-29T18:40:20.572Z,9.73
2023-03-29T18:43:24.072Z,7.25
2023-03-29T18:46:31.270Z,6.68
2023-03-29T18:49:36.975Z,9.43
2023-03-29T18:52:40.962Z,12.02
2023-03-29T18:55:44.756Z,16.45
2023-03-29T18:58:48.592Z,10.73
2023-03-29T19:01:52.412Z,30.57
2023-03-29T19:04:55.772Z,45.97
2023-03-29T19:07:59.573Z,26.45
2023-03-29T19:11:06.568Z,22.83
2023-03-29T19:14:10.625Z,32.83
2023-03-29T19:17:14.418Z,34.53
2023-03-29T19:20:18.356Z,45.90
2023-03-29T19:23:26.011Z,37.97
2023-03-29T19:26:29.644Z,30.45
2023-03-29T19:29:33.586Z,34.70
2023-03-29T19:32:37.417Z,34.60
2023-03-29T19:35:41.876Z,37.75
2023-03-29T19:38:45.915Z,32.92
2023-03-29T19:41:49.592Z,29.77
2023-03-29T19:44:54.229Z,35.90
2023-03-29T19:48:02.544Z,32.10
2023-03-29T19:51:08.047Z,37.75
2023-03-29T19:54:14.566Z,30.10
2023-03-29T19:57:18.269Z,34.03
2023-03-29T20:00:25.289Z,30.55
2023-03-29T20:03:29.034Z,24.33
2023-03-29T20:06:32.612Z,23.92
2023-03-29T20:09:36.781Z,27.55
2023-03-29T20:12:40.403Z,26.80
2023-03-29T20:15:47.115Z,27.80
2023-03-29T20:18:50.640Z,29.93
2023-03-29T20:21:57.445Z,26.33
2023-03-29T20:25:01.065Z,33.33
2023-03-29T20:28:06.619Z,28.50
2023-03-29T20:31:11.142Z,23.57
2023-03-29T20:34:14.572Z,22.50
2023-03-29T20:37:18.310Z,21.73
2023-03-29T20:40:21.648Z,28.33
2023-03-29T20:43:25.118Z,22.23
2023-03-29T20:46:37.748Z,20.85
2023-03-29T20:49:42.236Z,21.27
2023-03-29T20:52:48.489Z,28.02
2023-03-29T20:55:51.903Z,31.33
2023-03-29T20:58:56.073Z,28.88
2023-03-29T21:02:00.449Z,21.00
2023-03-29T21:05:04.363Z,18.75
2023-03-29T21:08:08.543Z,16.27
2023-03-29T21:11:13.686Z,22.42
2023-03-29T21:14:21.264Z,21.33
2023-03-29T21:17:24.714Z,17.25
2023-03-29T21:20:28.336Z,15.20
2023-03-29T21:23:32.187Z,13.40
2023-03-29T21:26:35.655Z,13.23
2023-03-29T21:29:39.597Z,15.25
2023-03-29T21:32:43.056Z,12.27
2023-03-29T21:35:48.698Z,10.70
2023-03-29T21:38:52.904Z,13.50
2023-03-29T21:41:56.752Z,10.60
2023-03-29T21:45:00.495Z,13.33
2023-03-29T21:48:04.095Z,13.38
2023-03-29T21:51:08.007Z,11.13
2023-03-29T21:54:11.957Z,13.68
2023-03-29T21:57:15.386Z,13.93
2023-03-29T22:00:19.159Z,14.85
2023-03-29T22:03:22.718Z,11.60
2023-03-29T22:06:26.113Z,15.10
2023-03-29T22:09:29.876Z,13.27
2023-03-29T22:12:37.406Z,14.95
2023-03-29T22:15:40.753Z,14.82
2023-03-29T22:18:47.041Z,11.98
2023-03-29T22:21:51.456Z,14.57
2023-03-29T22:24:55.912Z,12.35
2023-03-29T22:27:59.333Z,14.85
2023-03-29T22:31:13.593Z,13.07
2023-03-29T22:34:17.006Z,14.25
2023-03-29T22:37:22.666Z,11.70
2023-03-29T22:40:26.249Z,13.90
2023-03-29T22:43:30.012Z,13.18
2023-03-29T22:46:33.463Z,15.07
2023-03-29T22:49:37.061Z,15.17
2023-03-29T22:52:40.500Z,12.40
2023-03-29T22:55:45.956Z,12.38
2023-03-29T22:58:49.431Z,13.45
2023-03-29T23:01:52.995Z,13.23
2023-03-29T23:04:56.554Z,12.77
2023-03-29T23:07:59.969Z,13.60
2023-03-29T23:11:04.612Z,13.77
2023-03-29T23:14:08.709Z,15.20
2023-03-29T23:17:12.854Z,14.50
2023-03-29T23:20:16.267Z,12.20
2023-03-29T23:23:20.994Z,11.57
2023-03-29T23:26:24.332Z,14.00
2023-03-29T23:29:28.256Z,12.53
2023-03-29T23:32:31.722Z,15.70
2023-03-29T23:35:35.178Z,12.90
2023-03-29T23:38:39.899Z,14.40
2023-03-29T23:41:43.716Z,12.90
2023-03-29T23:44:47.044Z,11.82
2023-03-29T23:47:50.681Z,11.80
2023-03-29T23:50:57.025Z,12.55
2023-03-29T23:54:00.730Z,11.82
2023-03-29T23:57:04.078Z,12.38
